Terminal Aerodrome Forecast
Issued by NWS Charleston, WV

Current Version | Previous Version | Text Only | Print | Product List | Glossary Off
Versions: 1 2 3 4 5 6 7 8 9 10 11 12 13 14 15 16 17 18 19 20 21 22

000
FTUS41 KRLX 151100
TAFBKW
TAF
KBKW 151135Z 1512/1612 11008KT P6SM VCSH BKN008 OVC014
     FM151400 11009KT P6SM SHRA OVC016
     FM151900 12010G15KT 6SM -SHRA OVC025
     FM160000 12009KT P6SM BKN035
     FM161100 13013G20KT 6SM BR BKN070=

USA.gov is the U.S. government's official web portal to all federal, state and local government web resources and services.